Time;durP1;ratioP1;P1;durP2;ratioP2;P2;SDS_P1;SDS_P2;PMS_P1;PMS_P2;Temp;Humidity;BMP_temperature;BMP_pressure;BME280_temperature;BME280_humidity;BME280_pressure;Samples;Min_cycle;Max_cycle;Signal;HPM_P1;HPM_P2
2022/03/08 00:02:08;;;;;;;4.63;2.67;;;2.80;99.90;;;;;;5091013;28;20101;-80
2022/03/08 00:04:34;;;;;;;4.53;2.35;;;2.80;99.90;;;;;;5090291;28;20498;-80
2022/03/08 00:07:00;;;;;;;5.15;2.80;;;2.80;99.90;;;;;;5090852;28;20452;-80
2022/03/08 00:09:27;;;;;;;4.32;2.58;;;2.80;99.90;;;;;;5090909;28;20047;-80
2022/03/08 00:11:53;;;;;;;5.15;2.53;;;2.80;99.90;;;;;;5091126;28;20032;-80
2022/03/08 00:14:19;;;;;;;4.75;2.65;;;2.80;99.90;;;;;;5073301;28;20465;-80
2022/03/08 00:16:45;;;;;;;4.55;2.75;;;2.70;99.90;;;;;;5091036;28;20123;-80
2022/03/08 00:19:11;;;;;;;4.20;2.63;;;2.70;99.90;;;;;;5090732;28;20040;-80
2022/03/08 00:21:37;;;;;;;4.63;2.45;;;2.70;99.90;;;;;;5090907;28;20043;-80
2022/03/08 00:24:03;;;;;;;4.53;2.70;;;2.70;99.90;;;;;;5090981;28;20050;-80
2022/03/08 00:26:29;;;;;;;4.55;2.50;;;2.80;99.90;;;;;;5090500;28;20047;-81
2022/03/08 00:28:55;;;;;;;;;;;2.70;99.90;;;;;;5090592;28;20440;-80
2022/03/08 00:31:21;;;;;;;5.18;2.83;;;2.70;99.90;;;;;;5089989;28;19965;-80
2022/03/08 00:33:46;;;;;;;5.45;2.70;;;2.70;99.90;;;;;;5091596;28;20047;-80
2022/03/08 00:36:12;;;;;;;;;;;2.70;99.90;;;;;;5094865;28;20135;-80
2022/03/08 00:38:37;;;;;;;4.70;2.88;;;2.70;99.90;;;;;;5093680;28;19924;-80
2022/03/08 00:41:03;;;;;;;5.20;2.88;;;2.70;99.90;;;;;;5094300;28;20044;-80
2022/03/08 00:43:29;;;;;;;6.63;3.25;;;2.60;99.90;;;;;;5077129;28;20048;-81
2022/03/08 00:45:55;;;;;;;4.75;2.85;;;2.60;99.90;;;;;;5094002;28;20043;-80
2022/03/08 00:48:20;;;;;;;4.60;3.13;;;2.60;99.90;;;;;;5093928;28;20040;-80
2022/03/08 00:50:46;;;;;;;4.90;3.33;;;2.60;99.90;;;;;;5094332;28;20409;-81
2022/03/08 00:53:12;;;;;;;4.35;3.20;;;2.50;99.90;;;;;;5093571;28;20092;-80
2022/03/08 00:55:38;;;;;;;5.07;3.08;;;2.50;99.90;;;;;;5093819;28;20050;-80
2022/03/08 00:58:05;;;;;;;4.60;2.90;;;2.50;99.90;;;;;;5077136;28;20101;-81
2022/03/08 01:00:32;;;;;;;6.20;3.00;;;2.50;99.90;;;;;;5077115;28;20566;-81
2022/03/08 01:02:58;;;;;;;7.22;3.20;;;2.50;99.90;;;;;;5093433;28;20043;-81
2022/03/08 01:05:24;;;;;;;5.93;3.33;;;2.50;99.90;;;;;;5093596;28;20142;-81
2022/03/08 01:07:50;;;;;;;5.82;4.30;;;2.50;99.90;;;;;;5093755;28;20055;-81
2022/03/08 01:10:19;;;;;;;6.15;3.67;;;2.40;99.90;;;;;;5076676;28;20046;-81
2022/03/08 01:12:46;;;;;;;7.10;4.22;;;2.40;99.90;;;;;;5093680;28;20102;-81
2022/03/08 01:15:12;;;;;;;6.70;4.32;;;2.40;99.90;;;;;;5092583;28;20044;-81
2022/03/08 01:17:38;;;;;;;6.90;4.60;;;2.40;99.90;;;;;;5093221;28;20043;-81
2022/03/08 01:20:06;;;;;;;7.47;5.15;;;2.40;99.90;;;;;;5093047;28;20054;-81
2022/03/08 01:22:31;;;;;;;10.18;4.78;;;2.30;99.90;;;;;;5093335;28;20032;-81
2022/03/08 01:24:57;;;;;;;7.32;5.28;;;2.40;99.90;;;;;;5076632;28;20047;-81
2022/03/08 01:27:23;;;;;;;9.63;5.32;;;2.40;99.90;;;;;;5056442;28;20448;-81
2022/03/08 01:29:48;;;;;;;9.43;5.18;;;2.40;99.90;;;;;;5072692;28;20558;-81
2022/03/08 01:32:14;;;;;;;10.75;5.07;;;2.30;99.90;;;;;;5072709;28;20410;-81
2022/03/08 01:34:40;;;;;;;11.25;5.90;;;2.30;99.90;;;;;;5072942;28;20505;-81
2022/03/08 01:37:06;;;;;;;8.73;6.03;;;2.30;99.90;;;;;;5072714;28;20485;-81
2022/03/08 01:39:32;;;;;;;10.25;6.05;;;2.20;99.90;;;;;;5072750;28;20051;-81
2022/03/08 01:41:57;;;;;;;8.95;6.32;;;2.20;99.90;;;;;;5072692;28;20040;-81
2022/03/08 01:44:23;;;;;;;11.57;5.80;;;2.20;99.90;;;;;;5072121;28;20373;-81
2022/03/08 01:46:49;;;;;;;8.80;6.10;;;2.20;99.90;;;;;;5055474;28;20477;-82
2022/03/08 01:49:15;;;;;;;11.98;6.55;;;2.20;99.90;;;;;;5072281;28;20040;-80
2022/03/08 01:51:42;;;;;;;8.48;5.72;;;2.20;99.90;;;;;;5056182;28;20474;-81
2022/03/08 01:54:09;;;;;;;10.70;5.90;;;2.20;99.90;;;;;;5072439;28;20044;-81
2022/03/08 01:56:36;;;;;;;9.38;6.32;;;2.20;99.90;;;;;;5072541;28;20797;-81
2022/03/08 01:59:03;;;;;;;9.23;5.97;;;2.10;99.90;;;;;;5072209;28;20459;-81
2022/03/08 02:01:29;;;;;;;9.55;6.07;;;2.10;99.90;;;;;;5073025;28;20040;-81
2022/03/08 02:03:54;;;;;;;9.15;5.82;;;2.10;99.90;;;;;;5072106;28;20661;-81
2022/03/08 02:06:20;;;;;;;10.35;6.88;;;2.10;99.90;;;;;;5072217;28;20090;-81
2022/03/08 02:08:46;;;;;;;11.15;6.43;;;2.10;99.90;;;;;;5072649;28;20044;-81
2022/03/08 02:11:12;;;;;;;11.90;7.43;;;2.10;99.90;;;;;;5055102;28;20075;-81
2022/03/08 02:13:39;;;;;;;10.93;6.50;;;2.10;99.90;;;;;;5071941;28;20456;-81
2022/03/08 02:16:06;;;;;;;9.55;6.47;;;2.10;99.90;;;;;;5055551;28;20052;-81
2022/03/08 02:18:32;;;;;;;11.45;7.53;;;2.10;99.90;;;;;;5072367;28;20044;-81
2022/03/08 02:21:08;;;;;;;10.52;7.10;;;2.10;99.90;;;;;;5055551;28;20383;-81
2022/03/08 02:23:35;;;;;;;10.82;7.10;;;2.10;99.90;;;;;;5072182;28;20575;-81
2022/03/08 02:26:01;;;;;;;11.70;6.85;;;2.10;99.90;;;;;;5054404;28;20552;-81
2022/03/08 02:28:28;;;;;;;12.40;7.78;;;2.10;99.90;;;;;;5071899;28;20138;-81
2022/03/08 02:30:55;;;;;;;12.47;9.10;;;2.10;99.90;;;;;;5070274;28;20944;-81
2022/03/08 02:33:20;;;;;;;11.57;8.07;;;2.10;99.90;;;;;;5071702;28;20040;-82
2022/03/08 02:35:46;;;;;;;11.80;8.60;;;2.10;99.90;;;;;;5072032;28;20040;-81
2022/03/08 02:38:12;;;;;;;11.45;9.30;;;2.10;99.90;;;;;;5071520;28;20035;-81
2022/03/08 02:40:39;;;;;;;14.45;10.10;;;2.10;99.90;;;;;;5055081;28;20560;-81
2022/03/08 02:43:07;;;;;;;14.13;11.20;;;2.10;99.90;;;;;;5071633;28;20040;-81
2022/03/08 02:45:33;;;;;;;17.30;11.88;;;2.10;99.90;;;;;;5071243;28;20139;-81
2022/03/08 02:47:59;;;;;;;16.63;12.07;;;2.10;99.90;;;;;;5069993;28;20051;-82
2022/03/08 02:50:25;;;;;;;16.38;12.27;;;2.10;99.90;;;;;;5070914;28;20044;-81
2022/03/08 02:52:53;;;;;;;15.38;12.30;;;2.10;99.90;;;;;;5070593;28;20151;-82
2022/03/08 02:55:21;;;;;;;15.80;11.60;;;2.10;99.90;;;;;;5069992;28;20052;-81
2022/03/08 02:57:48;;;;;;;15.27;10.32;;;2.10;99.90;;;;;;5053066;28;20040;-82
2022/03/08 03:00:15;;;;;;;15.30;11.18;;;2.00;99.90;;;;;;5070865;28;20377;-81
2022/03/08 03:02:41;;;;;;;12.93;10.27;;;2.10;99.90;;;;;;5054199;28;20040;-82
2022/03/08 03:05:08;;;;;;;12.43;9.13;;;2.10;99.90;;;;;;5070271;28;20040;-81
2022/03/08 03:07:34;;;;;;;13.00;8.85;;;2.00;99.90;;;;;;5053864;28;20044;-82
2022/03/08 03:10:01;;;;;;;14.25;9.57;;;2.00;99.90;;;;;;5071297;28;20089;-82
2022/03/08 03:12:26;;;;;;;12.40;8.55;;;2.00;99.90;;;;;;5054231;28;20040;-81
2022/03/08 03:14:52;;;;;;;11.25;8.75;;;2.00;99.90;;;;;;5054674;28;20063;-81
2022/03/08 03:17:18;;;;;;;;;;;2.00;99.90;;;;;;5071824;28;20048;-82
2022/03/08 03:19:44;;;;;;;10.98;7.70;;;2.00;99.90;;;;;;5071201;28;20294;-82
2022/03/08 03:22:10;;;;;;;12.07;7.80;;;2.00;99.90;;;;;;5070920;28;20410;-82
2022/03/08 03:24:36;;;;;;;11.07;8.30;;;2.00;99.90;;;;;;5071217;28;20051;-82
2022/03/08 03:27:01;;;;;;;12.38;8.07;;;2.00;99.90;;;;;;5089115;28;20036;-82
2022/03/08 03:29:27;;;;;;;13.23;8.50;;;1.90;99.90;;;;;;5071079;28;20086;-82
2022/03/08 03:31:53;;;;;;;12.35;8.02;;;1.90;99.90;;;;;;5070910;28;20044;-82
2022/03/08 03:34:18;;;;;;;11.40;8.10;;;1.90;99.90;;;;;;5071219;28;20135;-82
2022/03/08 03:36:44;;;;;;;10.93;8.18;;;1.80;99.90;;;;;;5070974;28;20788;-81
2022/03/08 03:39:10;;;;;;;12.45;10.40;;;1.80;99.90;;;;;;5069714;28;20397;-82
2022/03/08 03:41:35;;;;;;;12.17;10.37;;;1.80;99.90;;;;;;5069852;28;20529;-81
2022/03/08 03:44:02;;;;;;;12.33;10.03;;;1.80;99.90;;;;;;5069763;28;20448;-82
2022/03/08 03:46:27;;;;;;;12.60;10.50;;;1.80;99.90;;;;;;5087846;28;20394;-82
2022/03/08 03:48:53;;;;;;;14.17;11.13;;;1.80;99.90;;;;;;5069316;28;20394;-81
2022/03/08 03:51:19;;;;;;;10.98;8.75;;;1.80;99.90;;;;;;5070806;28;20391;-81
2022/03/08 03:53:45;;;;;;;11.55;8.50;;;1.80;99.90;;;;;;5053855;28;20076;-82
2022/03/08 03:56:11;;;;;;;12.88;8.90;;;1.90;99.90;;;;;;5070796;28;20097;-81
2022/03/08 03:58:37;;;;;;;11.45;8.93;;;1.90;99.90;;;;;;5070627;28;20036;-81
2022/03/08 04:01:04;;;;;;;12.55;9.57;;;1.90;99.90;;;;;;5070957;28;20055;-81
2022/03/08 04:03:29;;;;;;;11.65;8.40;;;1.80;99.90;;;;;;5070763;28;20040;-81
2022/03/08 04:05:55;;;;;;;15.27;9.15;;;1.80;99.90;;;;;;5070476;28;20098;-81
2022/03/08 04:08:21;;;;;;;15.77;11.60;;;1.80;99.90;;;;;;5053457;28;20849;-82
2022/03/08 04:10:48;;;;;;;15.63;12.77;;;1.80;99.90;;;;;;5073315;28;20802;-82
2022/03/08 04:13:14;;;;;;;14.55;12.25;;;1.70;99.90;;;;;;5073094;28;20453;-81
2022/03/08 04:15:41;;;;;;;15.82;13.18;;;1.70;99.90;;;;;;5091566;28;20451;-82
2022/03/08 04:18:07;;;;;;;13.02;10.02;;;1.60;99.90;;;;;;5092401;28;20052;-82
2022/03/08 04:20:33;;;;;;;12.63;9.77;;;1.60;99.90;;;;;;5092423;28;20074;-81
2022/03/08 04:22:59;;;;;;;13.07;9.63;;;1.50;99.90;;;;;;5074157;28;20131;-82
2022/03/08 04:25:25;;;;;;;14.00;9.93;;;1.40;99.90;;;;;;5074032;28;20119;-81
2022/03/08 04:27:51;;;;;;;17.27;13.63;;;1.40;99.90;;;;;;5072908;28;20481;-81
2022/03/08 04:30:17;;;;;;;17.27;14.15;;;1.30;99.90;;;;;;5072314;28;20496;-81
2022/03/08 04:32:42;;;;;;;16.33;14.25;;;1.30;99.90;;;;;;5073422;28;20406;-81
2022/03/08 04:35:08;;;;;;;18.17;13.95;;;1.30;99.90;;;;;;5056046;28;20489;-82
2022/03/08 04:37:34;;;;;;;16.03;13.47;;;1.20;99.90;;;;;;5072341;28;20412;-81
2022/03/08 04:40:04;;;;;;;16.20;12.90;;;1.20;99.90;;;;;;5072918;28;20975;-82
2022/03/08 04:42:29;;;;;;;17.77;13.70;;;1.20;99.90;;;;;;5072925;28;20767;-81
2022/03/08 04:44:55;;;;;;;14.93;12.68;;;1.10;99.90;;;;;;5055418;28;20433;-81
2022/03/08 04:47:21;;;;;;;15.03;12.60;;;1.10;99.90;;;;;;5055981;28;20410;-81
2022/03/08 04:49:46;;;;;;;17.52;13.52;;;1.10;99.90;;;;;;5072243;28;20439;-81
2022/03/08 04:52:12;;;;;;;17.53;13.43;;;1.10;99.90;;;;;;5056122;28;20752;-82
2022/03/08 04:54:38;;;;;;;16.90;13.47;;;1.00;99.90;;;;;;5072080;28;20538;-81
2022/03/08 04:57:04;;;;;;;17.67;14.00;;;1.00;99.90;;;;;;5072761;28;20823;-81
2022/03/08 04:59:29;;;;;;;16.55;13.52;;;1.00;99.90;;;;;;5055425;28;20401;-82
2022/03/08 05:01:55;;;;;;;17.10;13.98;;;0.90;99.90;;;;;;5055470;28;20406;-82
2022/03/08 05:04:21;;;;;;;16.83;13.67;;;0.90;99.90;;;;;;5072281;28;20432;-81
2022/03/08 05:06:47;;;;;;;17.30;14.15;;;0.90;99.90;;;;;;5072254;28;20402;-81
2022/03/08 05:09:12;;;;;;;16.83;13.40;;;0.90;99.90;;;;;;5072125;28;20469;-81
2022/03/08 05:11:38;;;;;;;17.95;13.38;;;0.80;99.90;;;;;;5072014;28;20492;-81
2022/03/08 05:14:05;;;;;;;17.40;13.68;;;0.90;99.90;;;;;;5071940;28;20861;-81
2022/03/08 05:16:30;;;;;;;17.45;14.15;;;0.80;99.90;;;;;;5055750;28;20457;-81
2022/03/08 05:18:57;;;;;;;16.70;13.80;;;0.80;99.90;;;;;;5071459;28;20443;-81
2022/03/08 05:21:23;;;;;;;18.00;14.52;;;0.70;99.90;;;;;;5054972;28;20986;-81
2022/03/08 05:23:48;;;;;;;18.33;14.10;;;0.70;99.90;;;;;;5071753;28;20935;-81
2022/03/08 05:26:14;;;;;;;16.88;13.60;;;0.70;99.90;;;;;;5089770;28;20402;-81
2022/03/08 05:28:42;;;;;;;18.50;14.10;;;0.60;99.90;;;;;;5054704;28;21109;-81
2022/03/08 05:31:09;;;;;;;18.42;14.98;;;0.60;99.90;;;;;;5071382;28;20505;-81
2022/03/08 05:33:35;;;;;;;17.05;14.25;;;0.60;99.90;;;;;;5089656;28;20408;-81
2022/03/08 05:36:00;;;;;;;18.50;14.93;;;0.60;99.90;;;;;;5071869;28;20402;-82
2022/03/08 05:38:26;;;;;;;18.90;15.15;;;0.60;99.90;;;;;;5071604;28;20501;-80
2022/03/08 05:40:52;;;;;;;20.43;15.17;;;0.50;99.90;;;;;;5055118;28;20752;-81
2022/03/08 05:43:18;;;;;;;17.70;14.73;;;0.50;99.90;;;;;;5071642;28;20410;-81
2022/03/08 05:45:44;;;;;;;20.63;15.25;;;0.50;99.90;;;;;;5089393;28;20481;-81
2022/03/08 05:48:10;;;;;;;19.93;14.93;;;0.50;99.90;;;;;;5071465;28;20474;-81
2022/03/08 05:50:36;;;;;;;17.85;14.50;;;0.50;99.90;;;;;;5071437;28;20926;-81
2022/03/08 05:53:02;;;;;;;20.23;15.30;;;0.40;99.90;;;;;;5071281;28;20406;-81
2022/03/08 05:55:28;;;;;;;19.45;15.60;;;0.40;99.90;;;;;;5071443;28;20743;-81
2022/03/08 05:57:54;;;;;;;22.88;15.82;;;0.40;99.90;;;;;;5071155;28;20905;-81
2022/03/08 06:00:19;;;;;;;22.80;16.38;;;0.40;99.90;;;;;;5070738;28;20402;-81
2022/03/08 06:02:45;;;;;;;27.67;18.83;;;0.40;99.90;;;;;;5054566;28;20401;-82
2022/03/08 06:05:11;;;;;;;31.83;19.63;;;0.40;99.90;;;;;;5071240;28;20426;-81
2022/03/08 06:07:37;;;;;;;25.60;17.42;;;0.40;99.90;;;;;;5071074;28;20776;-81
2022/03/08 06:10:06;;;;;;;22.10;17.40;;;0.40;99.90;;;;;;5070752;28;20503;-81
2022/03/08 06:12:32;;;;;;;23.48;17.75;;;0.40;99.90;;;;;;5070508;28;20402;-82
2022/03/08 06:14:57;;;;;;;25.80;17.88;;;0.40;99.90;;;;;;5070361;28;20394;-81
2022/03/08 06:17:24;;;;;;;27.08;18.77;;;0.30;99.90;;;;;;5070740;28;20773;-82
2022/03/08 06:19:49;;;;;;;26.58;18.55;;;0.30;99.90;;;;;;5053895;28;20406;-82
2022/03/08 06:22:15;;;;;;;27.38;19.52;;;0.40;99.90;;;;;;5070478;28;20413;-82
2022/03/08 06:24:41;;;;;;;29.70;19.17;;;0.40;99.90;;;;;;5086662;28;20424;-82
2022/03/08 06:27:06;;;;;;;27.40;19.10;;;0.40;99.90;;;;;;5090703;28;20486;-82
2022/03/08 06:29:32;;;;;;;28.00;19.10;;;0.50;99.90;;;;;;5108479;28;20397;-82
2022/03/08 06:31:58;;;;;;;27.77;18.55;;;0.50;99.90;;;;;;5073379;28;20425;-82
2022/03/08 06:34:24;;;;;;;26.75;19.67;;;0.50;99.90;;;;;;5091143;28;20396;-82
2022/03/08 06:36:49;;;;;;;25.43;17.90;;;0.50;99.90;;;;;;5090170;28;20411;-82
2022/03/08 06:39:15;;;;;;;22.05;16.30;;;0.60;99.90;;;;;;5092613;27;20892;-81
2022/03/08 06:41:41;;;;;;;19.75;13.18;;;0.60;99.90;;;;;;5106920;27;20480;-82
2022/03/08 06:44:06;;;;;;;22.50;16.08;;;0.70;99.90;;;;;;5105482;27;20464;-81
2022/03/08 06:46:32;;;;;;;21.43;15.60;;;0.70;99.90;;;;;;5085785;28;20457;-81
2022/03/08 06:48:58;;;;;;;25.63;17.05;;;0.80;99.90;;;;;;5086889;27;20395;-82
2022/03/08 06:51:24;;;;;;;23.73;16.52;;;0.90;99.90;;;;;;5118561;27;20809;-82
2022/03/08 06:53:49;;;;;;;23.80;16.43;;;0.90;99.90;;;;;;5105829;27;20960;-82
2022/03/08 06:56:15;;;;;;;24.70;16.93;;;1.00;99.90;;;;;;5109952;27;20498;-82
2022/03/08 06:58:40;;;;;;;21.98;16.63;;;1.00;99.90;;;;;;5114449;27;20756;-81
2022/03/08 07:01:06;;;;;;;23.27;16.27;;;1.10;99.90;;;;;;5106869;28;20416;-81
2022/03/08 07:03:32;;;;;;;20.97;15.57;;;1.10;99.90;;;;;;5101557;27;20936;-81
2022/03/08 07:05:58;;;;;;;20.17;13.40;;;1.20;99.90;;;;;;5092552;28;20042;-83
2022/03/08 07:08:24;;;;;;;21.30;12.52;;;1.20;99.90;;;;;;5091843;28;20126;-82
2022/03/08 07:10:50;;;;;;;;;;;1.30;99.90;;;;;;5096258;27;20138;-82
2022/03/08 07:13:15;;;;;;;;;;;1.40;99.90;;;;;;5100044;28;19953;-82
2022/03/08 07:15:41;;;;;;;;;;;1.40;99.90;;;;;;5090244;28;19920;-82
2022/03/08 07:18:06;;;;;;;;;;;1.50;99.90;;;;;;5073074;28;20430;-83
2022/03/08 07:20:32;;;;;;;;;;;1.50;99.90;;;;;;5073335;28;19920;-83
2022/03/08 07:22:57;;;;;;;;;;;1.60;99.90;;;;;;5099244;28;19927;-82
2022/03/08 07:25:23;;;;;;;;;;;1.70;99.90;;;;;;5070000;28;19919;-83
2022/03/08 07:27:48;;;;;;;;;;;1.80;99.90;;;;;;5111044;28;19946;-83
2022/03/08 07:30:14;;;;;;;18.60;11.65;;;1.90;99.90;;;;;;5095733;28;19969;-83
2022/03/08 07:32:40;;;;;;;18.77;10.88;;;1.90;99.90;;;;;;5117905;28;20039;-82
2022/03/08 07:35:06;;;;;;;17.77;10.68;;;1.90;99.90;;;;;;5092580;28;20035;-84
2022/03/08 07:37:36;;;;;;;18.27;11.38;;;2.00;99.90;;;;;;5110289;28;20040;-83
2022/03/08 07:40:05;;;;;;;21.38;11.93;;;2.00;99.90;;;;;;5106048;28;20036;-82
2022/03/08 07:42:30;;;;;;;20.00;12.15;;;2.10;99.90;;;;;;5111909;27;20039;-83
2022/03/08 07:44:56;;;;;;;;;;;2.20;99.90;;;;;;5114659;27;20397;-83
2022/03/08 07:47:21;;;;;;;;;;;2.20;99.90;;;;;;5114861;27;19923;-83
2022/03/08 07:49:47;;;;;;;;;;;2.40;99.90;;;;;;5110176;28;20358;-83
2022/03/08 07:52:13;;;;;;;;;;;2.50;99.90;;;;;;5079875;28;19920;-83
2022/03/08 07:54:38;;;;;;;;;;;2.60;99.90;;;;;;5104078;28;19920;-81
2022/03/08 07:57:04;;;;;;;;;;;2.70;99.90;;;;;;5095663;28;19923;-82
2022/03/08 07:59:30;;;;;;;;;;;2.80;99.90;;;;;;5108926;28;19931;-82
2022/03/08 08:01:55;;;;;;;;;;;2.90;99.90;;;;;;5109321;27;19967;-82
2022/03/08 08:04:21;;;;;;;;;;;3.00;99.90;;;;;;5114985;27;21086;-82
2022/03/08 08:06:46;;;;;;;;;;;3.10;99.90;;;;;;5115633;27;19919;-82
2022/03/08 08:09:15;;;;;;;;;;;3.10;99.90;;;;;;5110551;27;19988;-81
2022/03/08 08:11:40;;;;;;;;;;;3.20;99.90;;;;;;5098245;27;20334;-81
2022/03/08 08:14:06;;;;;;;;;;;3.20;99.90;;;;;;5098465;27;20064;-82
2022/03/08 08:16:31;;;;;;;;;;;3.30;99.90;;;;;;5111036;27;19929;-82
2022/03/08 08:18:58;;;;;;;;;;;3.30;99.90;;;;;;5097878;27;20003;-82
2022/03/08 08:21:24;;;;;;;;;;;3.40;99.90;;;;;;5114150;27;20403;-82
2022/03/08 08:23:49;;;;;;;;;;;3.50;99.90;;;;;;5105981;28;19919;-82
2022/03/08 08:26:15;;;;;;;;;;;3.60;99.90;;;;;;5093802;28;20073;-82
2022/03/08 08:28:41;;;;;;;;;;;3.60;99.90;;;;;;5098925;27;19927;-82
2022/03/08 08:31:06;;;;;;;;;;;3.70;99.90;;;;;;5113223;27;19966;-82
2022/03/08 08:33:32;;;;;;;;;;;3.80;99.90;;;;;;5113432;27;19926;-82
2022/03/08 08:35:58;;;;;;;13.00;7.55;;;3.80;99.90;;;;;;5103836;27;19919;-82
2022/03/08 08:38:23;;;;;;;11.82;8.95;;;4.00;99.90;;;;;;5113700;27;20760;-82
2022/03/08 08:40:49;;;;;;;12.50;10.40;;;4.00;99.90;;;;;;5113105;27;20430;-82
2022/03/08 08:43:15;;;;;;;11.73;9.00;;;4.10;99.90;;;;;;5113654;27;20410;-82
2022/03/08 08:45:40;;;;;;;13.25;8.73;;;4.20;99.90;;;;;;5108469;27;20434;-82
2022/03/08 08:48:07;;;;;;;11.37;8.87;;;4.20;99.90;;;;;;5111383;27;20429;-82
2022/03/08 08:50:33;;;;;;;11.75;8.80;;;4.30;99.90;;;;;;5103919;28;20620;-82
2022/03/08 08:52:59;;;;;;;10.70;8.60;;;4.40;99.90;;;;;;5112295;27;20759;-82
2022/03/08 08:55:25;;;;;;;11.93;8.63;;;4.50;99.90;;;;;;5108242;27;20398;-82
2022/03/08 08:57:50;;;;;;;10.80;7.95;;;4.60;99.90;;;;;;5113799;27;20046;-82
2022/03/08 09:00:16;;;;;;;10.63;7.50;;;4.60;99.90;;;;;;5114437;27;20432;-82
2022/03/08 09:02:43;;;;;;;11.65;7.43;;;4.70;99.90;;;;;;5095533;27;20044;-82
2022/03/08 09:05:11;;;;;;;13.00;8.43;;;4.80;99.90;;;;;;5092795;27;20092;-82
2022/03/08 09:07:37;;;;;;;10.98;8.07;;;4.80;99.90;;;;;;5099227;28;20070;-82
2022/03/08 09:10:05;;;;;;;11.70;8.25;;;4.90;99.90;;;;;;5097093;28;20116;-82
2022/03/08 09:12:30;;;;;;;10.60;7.60;;;5.00;99.90;;;;;;5093272;28;20043;-82
2022/03/08 09:14:56;;;;;;;10.48;7.93;;;5.10;99.90;;;;;;5110753;27;20099;-82
2022/03/08 09:17:22;;;;;;;11.95;7.72;;;5.10;99.90;;;;;;5112530;27;20078;-82
2022/03/08 09:19:48;;;;;;;11.52;7.95;;;5.20;99.90;;;;;;5106167;28;20402;-82
2022/03/08 09:22:13;;;;;;;11.55;7.03;;;5.30;99.90;;;;;;5096303;28;20054;-83
2022/03/08 09:24:39;;;;;;;11.45;8.70;;;5.50;99.90;;;;;;5098638;28;20432;-82
2022/03/08 09:27:05;;;;;;;9.73;8.48;;;6.30;99.90;;;;;;5083643;28;20396;-83
2022/03/08 09:29:31;;;;;;;11.80;8.77;;;7.40;99.90;;;;;;5105969;28;20427;-83
2022/03/08 09:31:57;;;;;;;10.43;8.13;;;8.40;99.90;;;;;;5092143;28;21159;-82
2022/03/08 09:34:22;;;;;;;9.82;8.30;;;9.30;98.40;;;;;;5098383;28;20917;-83
2022/03/08 09:36:49;;;;;;;10.13;8.20;;;9.90;96.40;;;;;;5103975;27;20500;-83
2022/03/08 09:39:15;;;;;;;10.27;7.70;;;10.70;95.30;;;;;;5112314;27;20402;-83
2022/03/08 09:41:41;;;;;;;9.32;7.90;;;11.30;92.50;;;;;;5102914;28;20428;-83
2022/03/08 09:44:12;;;;;;;9.53;7.77;;;11.80;91.10;;;;;;5074864;28;20491;-83
2022/03/08 09:46:38;;;;;;;9.50;7.45;;;12.20;83.80;;;;;;5110730;27;20414;-83
2022/03/08 09:49:03;;;;;;;9.32;7.25;;;12.50;81.80;;;;;;5094279;27;20425;-83
2022/03/08 09:51:29;;;;;;;8.67;6.90;;;12.70;76.80;;;;;;5112291;27;20896;-82
2022/03/08 09:53:55;;;;;;;8.55;7.35;;;12.80;75.70;;;;;;5094593;28;20416;-83
2022/03/08 09:56:21;;;;;;;8.90;7.43;;;13.00;73.60;;;;;;5074652;28;20565;-82
2022/03/08 09:58:48;;;;;;;7.28;6.22;;;13.40;73.00;;;;;;5101014;28;20403;-82
2022/03/08 10:01:14;;;;;;;8.50;6.65;;;13.50;69.20;;;;;;5108615;28;20411;-82
2022/03/08 10:03:43;;;;;;;9.55;7.05;;;13.60;70.20;;;;;;5110587;27;20426;-83
2022/03/08 10:06:10;;;;;;;7.35;6.30;;;13.70;64.40;;;;;;5093567;27;20415;-83
2022/03/08 10:08:37;;;;;;;7.30;6.60;;;13.90;65.80;;;;;;5108404;28;20417;-83
2022/03/08 10:11:05;;;;;;;6.85;5.53;;;14.00;64.20;;;;;;5091284;28;20400;-83
2022/03/08 10:13:35;;;;;;;8.32;6.13;;;14.00;60.70;;;;;;5091568;28;20427;-83
2022/03/08 10:16:24;;;;;;;7.72;6.05;;;14.10;61.30;;;;;;5090813;28;20905;-83
2022/03/08 10:19:02;;;;;;;6.05;5.45;;;14.10;62.00;;;;;;5087358;27;20426;-83
2022/03/08 10:21:30;;;;;;;7.28;5.35;;;14.20;59.20;;;;;;5094071;27;20422;-83
2022/03/08 10:23:58;;;;;;;6.95;5.68;;;14.20;59.30;;;;;;5101560;28;20428;-83
2022/03/08 10:26:24;;;;;;;7.05;5.25;;;14.50;59.00;;;;;;5109163;28;20427;-83
2022/03/08 10:28:53;;;;;;;6.40;5.30;;;14.80;57.20;;;;;;5090962;28;20392;-83
2022/03/08 10:31:18;;;;;;;6.72;5.15;;;15.00;57.00;;;;;;5090702;28;20906;-83
2022/03/08 10:33:46;;;;;;;6.60;5.43;;;15.20;56.90;;;;;;5104225;27;20414;-83
2022/03/08 10:36:17;;;;;;;6.75;5.35;;;15.20;54.40;;;;;;5110721;27;20422;-83
2022/03/08 10:39:13;;;;;;;7.03;5.53;;;15.10;52.00;;;;;;5093173;27;20491;-83
2022/03/08 10:41:49;;;;;;;6.53;5.38;;;15.30;55.00;;;;;;5109785;27;20415;-83
2022/03/08 10:44:28;;;;;;;7.03;5.43;;;15.60;54.90;;;;;;5109394;27;20435;-84
2022/03/08 10:47:06;;;;;;;6.00;5.07;;;15.80;51.30;;;;;;5094035;28;20408;-84
2022/03/08 10:49:33;;;;;;;8.27;5.55;;;15.80;53.00;;;;;;5074510;28;20447;-84
2022/03/08 10:52:00;;;;;;;8.15;5.68;;;16.00;53.40;;;;;;5073351;28;20916;-84
2022/03/08 10:54:26;;;;;;;7.43;4.90;;;16.20;51.30;;;;;;5097664;27;20998;-83
2022/03/08 10:56:52;;;;;;;6.35;5.30;;;16.20;50.50;;;;;;5108898;27;20473;-84
2022/03/08 10:59:18;;;;;;;7.10;5.00;;;16.40;51.60;;;;;;5106288;27;20772;-83
2022/03/08 11:01:43;;;;;;;;;;;16.40;50.50;;;;;;5106728;27;20115;-84
2022/03/08 11:04:19;;;;;;;;;;;16.50;50.10;;;;;;5110885;27;19924;-83
2022/03/08 11:06:47;;;;;;;;;;;16.70;49.60;;;;;;5112256;27;20653;-84
2022/03/08 11:09:13;;;;;;;;;;;16.70;48.50;;;;;;5111632;27;19920;-83
2022/03/08 11:11:38;;;;;;;;;;;16.60;47.60;;;;;;5112415;27;19919;-83
2022/03/08 11:14:04;;;;;;;;;;;16.60;47.40;;;;;;5111988;28;19972;-83
2022/03/08 11:16:31;;;;;;;;;;;16.60;47.40;;;;;;5112140;27;20300;-83
2022/03/08 11:18:56;;;;;;;;;;;16.50;47.10;;;;;;5128513;27;20705;-83
2022/03/08 11:21:23;;;;;;;;;;;16.50;47.00;;;;;;5110955;28;20002;-83
2022/03/08 11:23:50;;;;;;;;;;;16.50;46.20;;;;;;5101908;28;19919;-83
2022/03/08 11:26:16;;;;;;;;;;;16.50;44.90;;;;;;5110106;28;19920;-83
2022/03/08 11:28:45;;;;;;;;;;;16.50;46.10;;;;;;5091398;28;20007;-83
2022/03/08 11:31:11;;;;;;;;;;;16.60;44.40;;;;;;5108482;28;19927;-83
2022/03/08 11:33:46;;;;;;;;;;;16.70;45.70;;;;;;5103063;28;19931;-83
2022/03/08 11:36:15;;;;;;;;;;;17.00;46.90;;;;;;5102882;28;19920;-83
2022/03/08 11:38:40;;;;;;;;;;;17.20;46.20;;;;;;5103249;28;19920;-83
2022/03/08 11:41:06;;;;;;;;;;;17.30;47.20;;;;;;5105265;28;19920;-83
2022/03/08 11:43:46;;;;;;;5.93;4.00;;;17.60;46.40;;;;;;5105907;28;19919;-83
2022/03/08 11:46:16;;;;;;;5.13;3.88;;;17.60;44.10;;;;;;5097641;28;20552;-82
2022/03/08 11:48:51;;;;;;;4.45;3.58;;;17.40;43.60;;;;;;5090568;28;20051;-83
2022/03/08 11:51:16;;;;;;;6.43;3.78;;;17.20;43.10;;;;;;5093714;28;20094;-83
2022/03/08 11:53:46;;;;;;;5.07;3.88;;;17.30;45.00;;;;;;5092714;28;20819;-83
2022/03/08 11:56:16;;;;;;;6.40;3.67;;;17.40;45.20;;;;;;5106804;28;20039;-83
2022/03/08 11:58:45;;;;;;;6.13;3.15;;;17.60;45.00;;;;;;5128502;28;20043;-83
2022/03/08 12:01:27;;;;;;;4.72;3.53;;;17.70;45.60;;;;;;5095737;28;20035;-83
2022/03/08 12:03:57;;;;;;;4.22;2.92;;;18.00;44.80;;;;;;5104771;28;20047;-83
2022/03/08 12:06:29;;;;;;;;;;;18.20;44.90;;;;;;5099907;28;20100;-83
2022/03/08 12:09:07;;;;;;;;;;;18.30;43.00;;;;;;5112773;28;20305;-83
2022/03/08 12:11:34;;;;;;;;;;;18.40;43.90;;;;;;5111943;28;19931;-82
2022/03/08 12:14:01;;;;;;;;;;;18.70;44.30;;;;;;5094049;28;19930;-83
2022/03/08 12:16:27;;;;;;;;;;;18.90;41.50;;;;;;5092889;28;19998;-83
2022/03/08 12:18:54;;;;;;;;;;;18.80;40.60;;;;;;5092787;28;20377;-83
2022/03/08 12:21:23;;;;;;;;;;;18.80;42.30;;;;;;5092358;28;20022;-83
2022/03/08 12:23:49;;;;;;;;;;;18.70;41.70;;;;;;5106662;28;20714;-83
2022/03/08 12:26:20;;;;;;;;;;;18.80;42.80;;;;;;5096693;28;19919;-83
2022/03/08 12:29:02;;;;;;;;;;;18.70;42.80;;;;;;5111443;28;19923;-83
2022/03/08 12:31:28;;;;;;;;;;;18.80;40.90;;;;;;5115146;27;19919;-83
2022/03/08 12:34:00;;;;;;;;;;;18.80;41.80;;;;;;5078760;27;20008;-83
2022/03/08 12:36:26;;;;;;;;;;;18.90;43.20;;;;;;5127847;27;19919;-81
2022/03/08 12:38:52;;;;;;;;;;;19.00;41.60;;;;;;5128076;27;19924;-81
2022/03/08 12:41:23;;;;;;;;;;;19.10;40.30;;;;;;5094422;28;20269;-81
2022/03/08 12:43:56;;;;;;;;;;;18.90;40.10;;;;;;5093479;28;19949;-81
2022/03/08 12:46:22;;;;;;;4.10;3.25;;;18.60;41.40;;;;;;5091298;28;19924;-82
2022/03/08 12:48:51;;;;;;;5.22;2.92;;;18.80;42.30;;;;;;5094292;28;20139;-81
2022/03/08 12:51:16;;;;;;;;;;;19.00;41.00;;;;;;5112188;27;20096;-81
2022/03/08 12:53:42;;;;;;;;;;;18.90;41.40;;;;;;5095568;27;19920;-81
2022/03/08 12:56:12;;;;;;;;;;;19.00;40.20;;;;;;5115017;27;19923;-82
2022/03/08 12:58:39;;;;;;;4.15;2.70;;;19.00;39.30;;;;;;5114844;27;20403;-81
2022/03/08 13:01:07;;;;;;;5.18;3.05;;;18.80;38.90;;;;;;5093791;27;20058;-82